Chicago, Illinois
Traffic Map
Current Weather Conditions
Chicago, Illinois
Overcast
Overcast
76°
Feels Like: 76°
Wind Chill: 76° Ceiling: 10000
Heat Index: 76° Visibility: 10mi
Dew Point: 67° Wind: 7mph
Humidity: 74% Direction: 230° (SW)
Pressure: 29.96in Gusts: 0mph
Raw Report DataKMDW 210551Z 23006KT 10SM OVC100 24/19 A2996 RMK AO2 SLP133 T02440194 10283 20244 403060200 51008
Traffic Incident Summary
Active as of:
Severity:
Category:
InformationThere was an issue retrieving the traffic information for this location. Please try a different location or try again shortly.
Advertisements
Track Severe Weather on mobile